sensor_id;sensor_type;location;lat;lon;timestamp;P1;durP1;ratioP1;P2;durP2;ratioP2
80233;SDS011;69712;42.142;24.766;2024-02-15T00:01:26;8.85;;;6.40;;
80233;SDS011;69712;42.142;24.766;2024-02-15T00:03:52;8.73;;;6.40;;
80233;SDS011;69712;42.142;24.766;2024-02-15T00:06:19;8.40;;;5.85;;
80233;SDS011;69712;42.142;24.766;2024-02-15T00:08:45;9.15;;;6.18;;
80233;SDS011;69712;42.142;24.766;2024-02-15T00:11:11;8.77;;;5.80;;
80233;SDS011;69712;42.142;24.766;2024-02-15T00:13:38;9.02;;;5.88;;
80233;SDS011;69712;42.142;24.766;2024-02-15T00:16:04;7.97;;;6.10;;
80233;SDS011;69712;42.142;24.766;2024-02-15T00:18:31;9.10;;;6.38;;
80233;SDS011;69712;42.142;24.766;2024-02-15T00:20:57;8.25;;;6.53;;
80233;SDS011;69712;42.142;24.766;2024-02-15T00:23:25;8.50;;;6.28;;
80233;SDS011;69712;42.142;24.766;2024-02-15T00:25:50;9.77;;;6.50;;
80233;SDS011;69712;42.142;24.766;2024-02-15T00:28:16;8.63;;;6.18;;
80233;SDS011;69712;42.142;24.766;2024-02-15T00:30:42;9.45;;;6.45;;
80233;SDS011;69712;42.142;24.766;2024-02-15T00:33:08;12.93;;;6.45;;
80233;SDS011;69712;42.142;24.766;2024-02-15T00:35:33;8.57;;;5.93;;
80233;SDS011;69712;42.142;24.766;2024-02-15T00:37:59;8.55;;;6.03;;
80233;SDS011;69712;42.142;24.766;2024-02-15T00:40:25;7.32;;;5.97;;
80233;SDS011;69712;42.142;24.766;2024-02-15T00:42:51;11.25;;;6.55;;
80233;SDS011;69712;42.142;24.766;2024-02-15T00:45:17;8.73;;;6.20;;
80233;SDS011;69712;42.142;24.766;2024-02-15T00:47:43;7.90;;;5.85;;
80233;SDS011;69712;42.142;24.766;2024-02-15T00:50:08;9.27;;;6.47;;
80233;SDS011;69712;42.142;24.766;2024-02-15T00:52:35;7.50;;;6.15;;
80233;SDS011;69712;42.142;24.766;2024-02-15T00:55:01;8.20;;;5.78;;
80233;SDS011;69712;42.142;24.766;2024-02-15T00:57:27;9.23;;;6.65;;
80233;SDS011;69712;42.142;24.766;2024-02-15T00:59:53;7.38;;;5.78;;
80233;SDS011;69712;42.142;24.766;2024-02-15T01:02:18;8.68;;;6.13;;
80233;SDS011;69712;42.142;24.766;2024-02-15T01:04:44;7.53;;;5.88;;
80233;SDS011;69712;42.142;24.766;2024-02-15T01:07:13;8.75;;;6.22;;
80233;SDS011;69712;42.142;24.766;2024-02-15T01:09:38;7.68;;;5.93;;
80233;SDS011;69712;42.142;24.766;2024-02-15T01:12:04;8.68;;;5.90;;
80233;SDS011;69712;42.142;24.766;2024-02-15T01:14:30;9.73;;;5.88;;
80233;SDS011;69712;42.142;24.766;2024-02-15T01:16:57;8.98;;;5.65;;
80233;SDS011;69712;42.142;24.766;2024-02-15T01:19:22;11.00;;;5.97;;
80233;SDS011;69712;42.142;24.766;2024-02-15T01:21:48;11.20;;;5.82;;
80233;SDS011;69712;42.142;24.766;2024-02-15T01:24:33;8.10;;;5.50;;
80233;SDS011;69712;42.142;24.766;2024-02-15T01:26:58;7.53;;;5.47;;
80233;SDS011;69712;42.142;24.766;2024-02-15T01:29:24;7.57;;;5.45;;
80233;SDS011;69712;42.142;24.766;2024-02-15T01:31:51;7.25;;;5.93;;
80233;SDS011;69712;42.142;24.766;2024-02-15T01:34:17;8.65;;;5.55;;
80233;SDS011;69712;42.142;24.766;2024-02-15T01:36:42;8.13;;;5.70;;
80233;SDS011;69712;42.142;24.766;2024-02-15T01:39:08;9.13;;;5.80;;
80233;SDS011;69712;42.142;24.766;2024-02-15T01:41:35;9.48;;;5.78;;
80233;SDS011;69712;42.142;24.766;2024-02-15T01:44:00;8.48;;;6.05;;
80233;SDS011;69712;42.142;24.766;2024-02-15T01:46:26;11.48;;;6.57;;
80233;SDS011;69712;42.142;24.766;2024-02-15T01:48:54;10.88;;;6.28;;
80233;SDS011;69712;42.142;24.766;2024-02-15T01:51:21;8.02;;;6.10;;
80233;SDS011;69712;42.142;24.766;2024-02-15T01:53:48;8.40;;;5.70;;
80233;SDS011;69712;42.142;24.766;2024-02-15T01:56:14;9.55;;;5.88;;
80233;SDS011;69712;42.142;24.766;2024-02-15T01:58:42;9.38;;;6.47;;
80233;SDS011;69712;42.142;24.766;2024-02-15T02:01:10;9.77;;;6.38;;
80233;SDS011;69712;42.142;24.766;2024-02-15T02:03:37;9.43;;;6.25;;
80233;SDS011;69712;42.142;24.766;2024-02-15T02:06:04;9.43;;;6.40;;
80233;SDS011;69712;42.142;24.766;2024-02-15T02:08:30;9.55;;;5.95;;
80233;SDS011;69712;42.142;24.766;2024-02-15T02:10:56;9.20;;;6.53;;
80233;SDS011;69712;42.142;24.766;2024-02-15T02:13:22;9.82;;;6.50;;
80233;SDS011;69712;42.142;24.766;2024-02-15T02:15:48;9.75;;;6.35;;
80233;SDS011;69712;42.142;24.766;2024-02-15T02:18:14;9.18;;;6.50;;
80233;SDS011;69712;42.142;24.766;2024-02-15T02:20:41;8.00;;;6.95;;
80233;SDS011;69712;42.142;24.766;2024-02-15T02:23:08;9.82;;;6.47;;
80233;SDS011;69712;42.142;24.766;2024-02-15T02:25:38;10.27;;;6.20;;
80233;SDS011;69712;42.142;24.766;2024-02-15T02:28:07;9.75;;;6.13;;
80233;SDS011;69712;42.142;24.766;2024-02-15T02:30:33;8.20;;;5.57;;
80233;SDS011;69712;42.142;24.766;2024-02-15T02:33:00;9.93;;;6.60;;
80233;SDS011;69712;42.142;24.766;2024-02-15T02:35:26;8.25;;;6.03;;
80233;SDS011;69712;42.142;24.766;2024-02-15T02:37:56;9.93;;;6.15;;
80233;SDS011;69712;42.142;24.766;2024-02-15T02:40:22;7.85;;;6.00;;
80233;SDS011;69712;42.142;24.766;2024-02-15T02:42:48;9.02;;;6.25;;
80233;SDS011;69712;42.142;24.766;2024-02-15T02:45:15;9.00;;;5.72;;
80233;SDS011;69712;42.142;24.766;2024-02-15T02:47:41;10.40;;;6.47;;
80233;SDS011;69712;42.142;24.766;2024-02-15T02:50:06;9.48;;;6.30;;
80233;SDS011;69712;42.142;24.766;2024-02-15T02:52:33;9.63;;;6.05;;
80233;SDS011;69712;42.142;24.766;2024-02-15T02:54:59;9.77;;;6.47;;
80233;SDS011;69712;42.142;24.766;2024-02-15T02:57:24;10.52;;;5.82;;
80233;SDS011;69712;42.142;24.766;2024-02-15T03:02:43;8.63;;;6.25;;
80233;SDS011;69712;42.142;24.766;2024-02-15T03:05:10;10.48;;;6.68;;
80233;SDS011;69712;42.142;24.766;2024-02-15T03:07:37;10.57;;;5.85;;
80233;SDS011;69712;42.142;24.766;2024-02-15T03:10:03;8.55;;;6.40;;
80233;SDS011;69712;42.142;24.766;2024-02-15T03:12:33;9.18;;;6.78;;
80233;SDS011;69712;42.142;24.766;2024-02-15T03:15:01;7.95;;;5.97;;
80233;SDS011;69712;42.142;24.766;2024-02-15T03:17:32;9.48;;;6.45;;
80233;SDS011;69712;42.142;24.766;2024-02-15T03:19:58;10.00;;;6.43;;
80233;SDS011;69712;42.142;24.766;2024-02-15T03:22:24;8.88;;;6.32;;
80233;SDS011;69712;42.142;24.766;2024-02-15T03:24:51;7.25;;;5.28;;
80233;SDS011;69712;42.142;24.766;2024-02-15T03:27:17;8.82;;;6.43;;
80233;SDS011;69712;42.142;24.766;2024-02-15T03:29:43;9.88;;;6.75;;
80233;SDS011;69712;42.142;24.766;2024-02-15T03:32:09;9.55;;;7.30;;
80233;SDS011;69712;42.142;24.766;2024-02-15T03:34:36;8.70;;;6.30;;
80233;SDS011;69712;42.142;24.766;2024-02-15T03:37:04;10.60;;;6.65;;
80233;SDS011;69712;42.142;24.766;2024-02-15T03:39:30;8.30;;;6.22;;
80233;SDS011;69712;42.142;24.766;2024-02-15T03:41:58;9.63;;;6.50;;
80233;SDS011;69712;42.142;24.766;2024-02-15T03:44:23;8.48;;;6.60;;
80233;SDS011;69712;42.142;24.766;2024-02-15T03:46:51;8.93;;;6.63;;
80233;SDS011;69712;42.142;24.766;2024-02-15T03:49:18;9.93;;;7.05;;
80233;SDS011;69712;42.142;24.766;2024-02-15T03:51:44;11.02;;;6.53;;
80233;SDS011;69712;42.142;24.766;2024-02-15T03:54:10;8.63;;;6.57;;
80233;SDS011;69712;42.142;24.766;2024-02-15T03:56:36;9.60;;;6.30;;
80233;SDS011;69712;42.142;24.766;2024-02-15T03:59:11;8.45;;;6.60;;
80233;SDS011;69712;42.142;24.766;2024-02-15T04:01:38;8.43;;;6.10;;
80233;SDS011;69712;42.142;24.766;2024-02-15T04:04:04;9.70;;;6.28;;
80233;SDS011;69712;42.142;24.766;2024-02-15T04:06:30;9.35;;;7.15;;
80233;SDS011;69712;42.142;24.766;2024-02-15T04:08:58;11.15;;;8.07;;
80233;SDS011;69712;42.142;24.766;2024-02-15T04:11:24;10.68;;;6.55;;
80233;SDS011;69712;42.142;24.766;2024-02-15T04:13:50;9.18;;;6.50;;
80233;SDS011;69712;42.142;24.766;2024-02-15T04:16:16;9.82;;;6.90;;
80233;SDS011;69712;42.142;24.766;2024-02-15T04:18:43;10.20;;;6.55;;
80233;SDS011;69712;42.142;24.766;2024-02-15T04:21:10;9.32;;;6.60;;
80233;SDS011;69712;42.142;24.766;2024-02-15T04:23:36;10.20;;;6.60;;
80233;SDS011;69712;42.142;24.766;2024-02-15T04:26:02;10.88;;;7.57;;
80233;SDS011;69712;42.142;24.766;2024-02-15T04:28:28;10.95;;;6.53;;
80233;SDS011;69712;42.142;24.766;2024-02-15T04:30:54;9.55;;;6.70;;
80233;SDS011;69712;42.142;24.766;2024-02-15T04:33:20;10.45;;;6.63;;
80233;SDS011;69712;42.142;24.766;2024-02-15T04:35:47;9.73;;;7.60;;
80233;SDS011;69712;42.142;24.766;2024-02-15T04:38:15;9.45;;;6.95;;
80233;SDS011;69712;42.142;24.766;2024-02-15T04:40:40;10.43;;;6.90;;
80233;SDS011;69712;42.142;24.766;2024-02-15T04:43:06;10.80;;;6.40;;
80233;SDS011;69712;42.142;24.766;2024-02-15T04:45:33;8.93;;;5.70;;
80233;SDS011;69712;42.142;24.766;2024-02-15T04:48:00;10.07;;;7.80;;
80233;SDS011;69712;42.142;24.766;2024-02-15T04:50:29;8.63;;;6.20;;
80233;SDS011;69712;42.142;24.766;2024-02-15T04:52:55;8.25;;;6.45;;
80233;SDS011;69712;42.142;24.766;2024-02-15T04:55:21;8.48;;;6.20;;
80233;SDS011;69712;42.142;24.766;2024-02-15T04:57:48;9.85;;;6.55;;
80233;SDS011;69712;42.142;24.766;2024-02-15T05:00:19;9.43;;;6.43;;
80233;SDS011;69712;42.142;24.766;2024-02-15T05:02:51;10.07;;;6.72;;
80233;SDS011;69712;42.142;24.766;2024-02-15T05:05:17;11.65;;;7.00;;
80233;SDS011;69712;42.142;24.766;2024-02-15T05:07:43;7.78;;;5.28;;
80233;SDS011;69712;42.142;24.766;2024-02-15T05:10:09;12.20;;;7.65;;
80233;SDS011;69712;42.142;24.766;2024-02-15T05:12:36;10.70;;;6.80;;
80233;SDS011;69712;42.142;24.766;2024-02-15T05:15:02;11.75;;;6.88;;
80233;SDS011;69712;42.142;24.766;2024-02-15T05:17:36;10.02;;;6.35;;
80233;SDS011;69712;42.142;24.766;2024-02-15T05:20:09;11.95;;;6.50;;
80233;SDS011;69712;42.142;24.766;2024-02-15T05:22:39;11.32;;;6.93;;
80233;SDS011;69712;42.142;24.766;2024-02-15T05:25:08;10.63;;;6.55;;
80233;SDS011;69712;42.142;24.766;2024-02-15T05:27:34;8.75;;;6.15;;
80233;SDS011;69712;42.142;24.766;2024-02-15T05:30:02;10.50;;;6.90;;
80233;SDS011;69712;42.142;24.766;2024-02-15T05:32:31;10.55;;;6.50;;
80233;SDS011;69712;42.142;24.766;2024-02-15T05:35:10;9.73;;;6.40;;
80233;SDS011;69712;42.142;24.766;2024-02-15T05:37:37;8.95;;;6.25;;
80233;SDS011;69712;42.142;24.766;2024-02-15T05:40:03;14.38;;;7.40;;
80233;SDS011;69712;42.142;24.766;2024-02-15T05:42:30;11.80;;;7.10;;
80233;SDS011;69712;42.142;24.766;2024-02-15T05:44:59;9.98;;;6.38;;
80233;SDS011;69712;42.142;24.766;2024-02-15T05:47:58;11.45;;;7.22;;
80233;SDS011;69712;42.142;24.766;2024-02-15T05:50:24;11.27;;;6.70;;
80233;SDS011;69712;42.142;24.766;2024-02-15T05:52:52;10.27;;;6.70;;
80233;SDS011;69712;42.142;24.766;2024-02-15T05:55:19;11.23;;;5.95;;
80233;SDS011;69712;42.142;24.766;2024-02-15T05:57:46;11.13;;;7.07;;
80233;SDS011;69712;42.142;24.766;2024-02-15T06:00:12;10.57;;;7.10;;
80233;SDS011;69712;42.142;24.766;2024-02-15T06:02:38;13.98;;;6.78;;
80233;SDS011;69712;42.142;24.766;2024-02-15T06:05:04;12.75;;;7.43;;
80233;SDS011;69712;42.142;24.766;2024-02-15T06:07:31;11.07;;;6.88;;
80233;SDS011;69712;42.142;24.766;2024-02-15T06:09:59;10.13;;;6.32;;
80233;SDS011;69712;42.142;24.766;2024-02-15T06:12:31;12.57;;;6.68;;
80233;SDS011;69712;42.142;24.766;2024-02-15T06:15:00;9.13;;;6.70;;
80233;SDS011;69712;42.142;24.766;2024-02-15T06:17:30;11.98;;;7.45;;
80233;SDS011;69712;42.142;24.766;2024-02-15T06:19:56;8.85;;;6.75;;
80233;SDS011;69712;42.142;24.766;2024-02-15T06:22:22;11.25;;;7.32;;
80233;SDS011;69712;42.142;24.766;2024-02-15T06:24:49;8.80;;;6.88;;
80233;SDS011;69712;42.142;24.766;2024-02-15T06:27:15;9.82;;;6.60;;
80233;SDS011;69712;42.142;24.766;2024-02-15T06:29:42;11.93;;;7.45;;
80233;SDS011;69712;42.142;24.766;2024-02-15T06:32:26;11.23;;;7.85;;
80233;SDS011;69712;42.142;24.766;2024-02-15T06:35:10;12.65;;;8.07;;
80233;SDS011;69712;42.142;24.766;2024-02-15T06:37:55;11.27;;;7.20;;
80233;SDS011;69712;42.142;24.766;2024-02-15T06:40:39;9.75;;;7.32;;
80233;SDS011;69712;42.142;24.766;2024-02-15T06:43:05;10.13;;;7.10;;
80233;SDS011;69712;42.142;24.766;2024-02-15T06:45:31;23.85;;;7.40;;
80233;SDS011;69712;42.142;24.766;2024-02-15T06:47:57;13.27;;;7.38;;
80233;SDS011;69712;42.142;24.766;2024-02-15T06:50:23;12.73;;;7.43;;
80233;SDS011;69712;42.142;24.766;2024-02-15T06:52:51;11.80;;;7.30;;
80233;SDS011;69712;42.142;24.766;2024-02-15T06:55:16;10.02;;;6.63;;
80233;SDS011;69712;42.142;24.766;2024-02-15T06:57:44;11.20;;;7.03;;
80233;SDS011;69712;42.142;24.766;2024-02-15T07:00:10;10.13;;;7.05;;
80233;SDS011;69712;42.142;24.766;2024-02-15T07:02:40;14.18;;;7.32;;
80233;SDS011;69712;42.142;24.766;2024-02-15T07:05:06;12.32;;;7.10;;
80233;SDS011;69712;42.142;24.766;2024-02-15T07:07:32;14.18;;;6.90;;
80233;SDS011;69712;42.142;24.766;2024-02-15T07:09:59;10.98;;;7.35;;
80233;SDS011;69712;42.142;24.766;2024-02-15T07:12:27;11.32;;;6.75;;
80233;SDS011;69712;42.142;24.766;2024-02-15T07:14:53;10.30;;;6.68;;
80233;SDS011;69712;42.142;24.766;2024-02-15T07:17:19;11.68;;;7.28;;
80233;SDS011;69712;42.142;24.766;2024-02-15T07:19:45;9.93;;;6.90;;
80233;SDS011;69712;42.142;24.766;2024-02-15T07:22:16;10.93;;;7.50;;
80233;SDS011;69712;42.142;24.766;2024-02-15T07:24:42;11.57;;;6.60;;
80233;SDS011;69712;42.142;24.766;2024-02-15T07:27:08;10.43;;;6.50;;
80233;SDS011;69712;42.142;24.766;2024-02-15T07:29:35;11.18;;;7.32;;
80233;SDS011;69712;42.142;24.766;2024-02-15T07:32:05;11.10;;;6.38;;
80233;SDS011;69712;42.142;24.766;2024-02-15T07:34:31;9.75;;;6.65;;
80233;SDS011;69712;42.142;24.766;2024-02-15T07:36:58;10.23;;;7.05;;
80233;SDS011;69712;42.142;24.766;2024-02-15T07:39:24;8.88;;;6.40;;
80233;SDS011;69712;42.142;24.766;2024-02-15T07:41:55;9.52;;;7.55;;
80233;SDS011;69712;42.142;24.766;2024-02-15T07:44:23;12.30;;;7.80;;
80233;SDS011;69712;42.142;24.766;2024-02-15T07:46:50;11.23;;;7.07;;
80233;SDS011;69712;42.142;24.766;2024-02-15T07:49:16;8.80;;;7.00;;
80233;SDS011;69712;42.142;24.766;2024-02-15T07:51:43;11.88;;;7.15;;
80233;SDS011;69712;42.142;24.766;2024-02-15T07:54:18;8.48;;;6.70;;
80233;SDS011;69712;42.142;24.766;2024-02-15T07:56:46;12.82;;;6.82;;
80233;SDS011;69712;42.142;24.766;2024-02-15T07:59:15;12.32;;;7.47;;
80233;SDS011;69712;42.142;24.766;2024-02-15T08:01:42;12.93;;;7.30;;
80233;SDS011;69712;42.142;24.766;2024-02-15T08:04:08;10.05;;;6.90;;
80233;SDS011;69712;42.142;24.766;2024-02-15T08:06:34;12.52;;;7.20;;
80233;SDS011;69712;42.142;24.766;2024-02-15T08:09:02;9.63;;;7.57;;
80233;SDS011;69712;42.142;24.766;2024-02-15T08:11:31;11.73;;;8.50;;
80233;SDS011;69712;42.142;24.766;2024-02-15T08:13:57;10.10;;;6.90;;
80233;SDS011;69712;42.142;24.766;2024-02-15T08:16:24;11.60;;;7.03;;
80233;SDS011;69712;42.142;24.766;2024-02-15T08:18:54;12.35;;;7.63;;
80233;SDS011;69712;42.142;24.766;2024-02-15T08:21:29;9.45;;;5.97;;
80233;SDS011;69712;42.142;24.766;2024-02-15T08:24:00;9.63;;;7.07;;
80233;SDS011;69712;42.142;24.766;2024-02-15T08:26:35;9.82;;;6.47;;
80233;SDS011;69712;42.142;24.766;2024-02-15T08:29:03;10.70;;;7.23;;
80233;SDS011;69712;42.142;24.766;2024-02-15T08:31:29;10.00;;;7.40;;
80233;SDS011;69712;42.142;24.766;2024-02-15T08:34:04;11.35;;;6.93;;
80233;SDS011;69712;42.142;24.766;2024-02-15T08:36:30;11.07;;;6.45;;
80233;SDS011;69712;42.142;24.766;2024-02-15T08:38:56;12.98;;;7.15;;
80233;SDS011;69712;42.142;24.766;2024-02-15T08:41:22;10.25;;;7.07;;
80233;SDS011;69712;42.142;24.766;2024-02-15T08:43:52;10.15;;;7.40;;
80233;SDS011;69712;42.142;24.766;2024-02-15T08:46:18;13.05;;;7.35;;
80233;SDS011;69712;42.142;24.766;2024-02-15T08:48:45;9.40;;;7.55;;
80233;SDS011;69712;42.142;24.766;2024-02-15T08:51:12;17.50;;;7.97;;
80233;SDS011;69712;42.142;24.766;2024-02-15T08:53:37;10.85;;;8.30;;
80233;SDS011;69712;42.142;24.766;2024-02-15T08:56:04;12.35;;;8.43;;
80233;SDS011;69712;42.142;24.766;2024-02-15T08:58:30;10.88;;;7.20;;
80233;SDS011;69712;42.142;24.766;2024-02-15T09:00:56;15.02;;;7.68;;
80233;SDS011;69712;42.142;24.766;2024-02-15T09:03:22;12.20;;;7.45;;
80233;SDS011;69712;42.142;24.766;2024-02-15T09:05:48;11.82;;;7.78;;
80233;SDS011;69712;42.142;24.766;2024-02-15T09:08:14;10.20;;;6.97;;
80233;SDS011;69712;42.142;24.766;2024-02-15T09:10:54;9.48;;;6.70;;
80233;SDS011;69712;42.142;24.766;2024-02-15T09:13:20;10.57;;;7.40;;
80233;SDS011;69712;42.142;24.766;2024-02-15T09:15:47;11.60;;;8.85;;
80233;SDS011;69712;42.142;24.766;2024-02-15T09:18:13;13.40;;;8.30;;
80233;SDS011;69712;42.142;24.766;2024-02-15T09:20:39;9.13;;;7.05;;
80233;SDS011;69712;42.142;24.766;2024-02-15T09:23:09;10.40;;;7.03;;
80233;SDS011;69712;42.142;24.766;2024-02-15T09:25:40;12.60;;;7.93;;
80233;SDS011;69712;42.142;24.766;2024-02-15T09:28:09;9.15;;;7.15;;
80233;SDS011;69712;42.142;24.766;2024-02-15T09:30:35;10.07;;;7.70;;
80233;SDS011;69712;42.142;24.766;2024-02-15T09:33:01;12.00;;;7.53;;
80233;SDS011;69712;42.142;24.766;2024-02-15T09:35:31;11.93;;;7.55;;
80233;SDS011;69712;42.142;24.766;2024-02-15T09:37:57;10.57;;;7.07;;
80233;SDS011;69712;42.142;24.766;2024-02-15T09:40:23;12.50;;;7.70;;
80233;SDS011;69712;42.142;24.766;2024-02-15T09:42:54;10.02;;;6.90;;
80233;SDS011;69712;42.142;24.766;2024-02-15T09:45:20;12.02;;;7.65;;
80233;SDS011;69712;42.142;24.766;2024-02-15T09:47:46;9.80;;;6.35;;
80233;SDS011;69712;42.142;24.766;2024-02-15T09:50:15;10.02;;;6.38;;
80233;SDS011;69712;42.142;24.766;2024-02-15T09:52:52;13.00;;;6.82;;
80233;SDS011;69712;42.142;24.766;2024-02-15T09:55:21;10.40;;;6.93;;
80233;SDS011;69712;42.142;24.766;2024-02-15T09:57:48;9.30;;;7.05;;
80233;SDS011;69712;42.142;24.766;2024-02-15T10:00:15;10.88;;;6.95;;
80233;SDS011;69712;42.142;24.766;2024-02-15T10:02:42;10.80;;;7.00;;
80233;SDS011;69712;42.142;24.766;2024-02-15T10:05:10;11.32;;;7.05;;
80233;SDS011;69712;42.142;24.766;2024-02-15T10:07:39;11.05;;;6.53;;
80233;SDS011;69712;42.142;24.766;2024-02-15T10:12:48;9.90;;;7.07;;
80233;SDS011;69712;42.142;24.766;2024-02-15T10:15:29;15.15;;;7.22;;
80233;SDS011;69712;42.142;24.766;2024-02-15T10:17:57;9.98;;;7.20;;
80233;SDS011;69712;42.142;24.766;2024-02-15T10:20:24;10.38;;;7.13;;
80233;SDS011;69712;42.142;24.766;2024-02-15T10:23:08;8.77;;;6.90;;
80233;SDS011;69712;42.142;24.766;2024-02-15T10:25:38;9.52;;;6.55;;
80233;SDS011;69712;42.142;24.766;2024-02-15T10:30:44;8.05;;;6.25;;
80233;SDS011;69712;42.142;24.766;2024-02-15T10:33:25;14.82;;;6.85;;
80233;SDS011;69712;42.142;24.766;2024-02-15T10:36:08;10.65;;;7.00;;
80233;SDS011;69712;42.142;24.766;2024-02-15T10:38:34;10.63;;;6.70;;
80233;SDS011;69712;42.142;24.766;2024-02-15T10:41:04;10.63;;;7.43;;
80233;SDS011;69712;42.142;24.766;2024-02-15T10:43:31;8.68;;;6.60;;
80233;SDS011;69712;42.142;24.766;2024-02-15T10:45:58;10.82;;;7.78;;
80233;SDS011;69712;42.142;24.766;2024-02-15T10:48:26;11.52;;;6.75;;
80233;SDS011;69712;42.142;24.766;2024-02-15T10:50:53;8.90;;;6.47;;
80233;SDS011;69712;42.142;24.766;2024-02-15T10:53:27;7.63;;;6.03;;
80233;SDS011;69712;42.142;24.766;2024-02-15T10:58:50;9.98;;;6.30;;
80233;SDS011;69712;42.142;24.766;2024-02-15T11:01:38;8.23;;;5.50;;
80233;SDS011;69712;42.142;24.766;2024-02-15T11:04:10;8.00;;;5.88;;
80233;SDS011;69712;42.142;24.766;2024-02-15T11:06:41;8.32;;;6.03;;
80233;SDS011;69712;42.142;24.766;2024-02-15T11:09:09;9.30;;;6.13;;
80233;SDS011;69712;42.142;24.766;2024-02-15T11:11:36;8.82;;;5.93;;
80233;SDS011;69712;42.142;24.766;2024-02-15T11:14:23;7.10;;;5.97;;
80233;SDS011;69712;42.142;24.766;2024-02-15T11:16:57;7.68;;;5.57;;
80233;SDS011;69712;42.142;24.766;2024-02-15T11:21:58;7.15;;;5.70;;
80233;SDS011;69712;42.142;24.766;2024-02-15T11:24:28;7.95;;;5.65;;
80233;SDS011;69712;42.142;24.766;2024-02-15T11:27:00;9.60;;;6.30;;
80233;SDS011;69712;42.142;24.766;2024-02-15T11:32:42;8.35;;;5.60;;
80233;SDS011;69712;42.142;24.766;2024-02-15T11:35:09;8.48;;;5.35;;
80233;SDS011;69712;42.142;24.766;2024-02-15T11:38:09;6.35;;;4.78;;
80233;SDS011;69712;42.142;24.766;2024-02-15T11:46:15;8.48;;;5.80;;
80233;SDS011;69712;42.142;24.766;2024-02-15T11:48:47;8.65;;;5.32;;
80233;SDS011;69712;42.142;24.766;2024-02-15T11:51:35;7.78;;;5.57;;
80233;SDS011;69712;42.142;24.766;2024-02-15T11:59:29;9.73;;;5.40;;
80233;SDS011;69712;42.142;24.766;2024-02-15T12:02:07;6.30;;;4.70;;
80233;SDS011;69712;42.142;24.766;2024-02-15T12:04:52;8.80;;;5.40;;
80233;SDS011;69712;42.142;24.766;2024-02-15T12:07:36;8.80;;;5.63;;
80233;SDS011;69712;42.142;24.766;2024-02-15T12:10:37;9.20;;;5.53;;
80233;SDS011;69712;42.142;24.766;2024-02-15T12:16:58;6.35;;;4.93;;
80233;SDS011;69712;42.142;24.766;2024-02-15T12:19:53;7.45;;;5.05;;
80233;SDS011;69712;42.142;24.766;2024-02-15T12:22:25;7.35;;;5.07;;
80233;SDS011;69712;42.142;24.766;2024-02-15T12:25:00;8.07;;;5.40;;
80233;SDS011;69712;42.142;24.766;2024-02-15T12:27:31;7.50;;;4.65;;
80233;SDS011;69712;42.142;24.766;2024-02-15T12:29:57;6.70;;;5.15;;
80233;SDS011;69712;42.142;24.766;2024-02-15T12:32:26;8.27;;;5.20;;
80233;SDS011;69712;42.142;24.766;2024-02-15T12:34:53;6.82;;;4.95;;
80233;SDS011;69712;42.142;24.766;2024-02-15T12:37:35;7.10;;;5.10;;
80233;SDS011;69712;42.142;24.766;2024-02-15T12:40:17;5.85;;;4.70;;
80233;SDS011;69712;42.142;24.766;2024-02-15T12:42:43;7.90;;;4.72;;
80233;SDS011;69712;42.142;24.766;2024-02-15T12:47:49;6.43;;;5.35;;
80233;SDS011;69712;42.142;24.766;2024-02-15T12:50:16;6.22;;;4.95;;
80233;SDS011;69712;42.142;24.766;2024-02-15T12:52:45;6.13;;;4.80;;
80233;SDS011;69712;42.142;24.766;2024-02-15T12:55:16;5.63;;;4.63;;
80233;SDS011;69712;42.142;24.766;2024-02-15T12:57:47;6.97;;;4.80;;
80233;SDS011;69712;42.142;24.766;2024-02-15T13:00:18;6.18;;;4.47;;
80233;SDS011;69712;42.142;24.766;2024-02-15T13:02:46;6.07;;;4.53;;
80233;SDS011;69712;42.142;24.766;2024-02-15T13:05:14;5.72;;;4.65;;
80233;SDS011;69712;42.142;24.766;2024-02-15T13:07:44;8.73;;;4.88;;
80233;SDS011;69712;42.142;24.766;2024-02-15T13:10:13;6.40;;;4.75;;
80233;SDS011;69712;42.142;24.766;2024-02-15T13:12:40;6.65;;;4.53;;
80233;SDS011;69712;42.142;24.766;2024-02-15T13:15:13;7.65;;;4.88;;
80233;SDS011;69712;42.142;24.766;2024-02-15T13:17:42;7.20;;;4.68;;
80233;SDS011;69712;42.142;24.766;2024-02-15T13:20:14;6.93;;;4.95;;
80233;SDS011;69712;42.142;24.766;2024-02-15T13:22:42;5.80;;;4.80;;
80233;SDS011;69712;42.142;24.766;2024-02-15T13:25:09;7.65;;;4.95;;
80233;SDS011;69712;42.142;24.766;2024-02-15T13:27:36;6.25;;;4.72;;
80233;SDS011;69712;42.142;24.766;2024-02-15T13:30:06;6.63;;;4.50;;
80233;SDS011;69712;42.142;24.766;2024-02-15T13:32:36;6.15;;;4.70;;
80233;SDS011;69712;42.142;24.766;2024-02-15T13:35:06;6.15;;;4.68;;
80233;SDS011;69712;42.142;24.766;2024-02-15T13:37:47;6.32;;;4.45;;
80233;SDS011;69712;42.142;24.766;2024-02-15T13:40:14;5.72;;;4.60;;
80233;SDS011;69712;42.142;24.766;2024-02-15T13:42:49;6.00;;;4.80;;
80233;SDS011;69712;42.142;24.766;2024-02-15T13:45:27;6.30;;;4.60;;
80233;SDS011;69712;42.142;24.766;2024-02-15T13:47:56;7.47;;;5.00;;
80233;SDS011;69712;42.142;24.766;2024-02-15T13:50:22;8.70;;;4.80;;
80233;SDS011;69712;42.142;24.766;2024-02-15T13:52:48;9.77;;;4.63;;
80233;SDS011;69712;42.142;24.766;2024-02-15T13:55:18;6.28;;;5.10;;
80233;SDS011;69712;42.142;24.766;2024-02-15T13:57:47;7.35;;;4.95;;
80233;SDS011;69712;42.142;24.766;2024-02-15T14:00:14;7.07;;;4.82;;
80233;SDS011;69712;42.142;24.766;2024-02-15T14:02:57;6.93;;;4.80;;
80233;SDS011;69712;42.142;24.766;2024-02-15T14:05:24;7.20;;;4.80;;
80233;SDS011;69712;42.142;24.766;2024-02-15T14:07:54;6.95;;;5.30;;
80233;SDS011;69712;42.142;24.766;2024-02-15T14:10:21;5.95;;;4.78;;
80233;SDS011;69712;42.142;24.766;2024-02-15T14:12:48;6.57;;;4.50;;
80233;SDS011;69712;42.142;24.766;2024-02-15T14:15:17;7.78;;;6.05;;
80233;SDS011;69712;42.142;24.766;2024-02-15T14:17:44;6.47;;;4.93;;
80233;SDS011;69712;42.142;24.766;2024-02-15T14:20:10;6.97;;;4.70;;
80233;SDS011;69712;42.142;24.766;2024-02-15T14:22:39;5.75;;;4.60;;
80233;SDS011;69712;42.142;24.766;2024-02-15T14:25:09;8.43;;;4.45;;
80233;SDS011;69712;42.142;24.766;2024-02-15T14:27:37;7.50;;;4.68;;
80233;SDS011;69712;42.142;24.766;2024-02-15T14:30:07;6.10;;;4.32;;
80233;SDS011;69712;42.142;24.766;2024-02-15T14:32:52;5.63;;;4.10;;
80233;SDS011;69712;42.142;24.766;2024-02-15T14:35:32;5.60;;;4.18;;
80233;SDS011;69712;42.142;24.766;2024-02-15T14:38:08;7.68;;;4.40;;
80233;SDS011;69712;42.142;24.766;2024-02-15T14:40:36;5.43;;;4.32;;
80233;SDS011;69712;42.142;24.766;2024-02-15T14:43:04;8.80;;;4.63;;
80233;SDS011;69712;42.142;24.766;2024-02-15T14:45:34;6.90;;;4.30;;
80233;SDS011;69712;42.142;24.766;2024-02-15T14:48:03;7.32;;;4.63;;
80233;SDS011;69712;42.142;24.766;2024-02-15T14:50:30;7.13;;;4.88;;
80233;SDS011;69712;42.142;24.766;2024-02-15T14:52:55;6.18;;;4.80;;
80233;SDS011;69712;42.142;24.766;2024-02-15T14:55:21;8.15;;;5.20;;
80233;SDS011;69712;42.142;24.766;2024-02-15T14:57:48;8.68;;;4.93;;
80233;SDS011;69712;42.142;24.766;2024-02-15T15:00:14;11.13;;;6.60;;
80233;SDS011;69712;42.142;24.766;2024-02-15T15:02:45;6.45;;;5.18;;
80233;SDS011;69712;42.142;24.766;2024-02-15T15:05:15;8.45;;;5.68;;
80233;SDS011;69712;42.142;24.766;2024-02-15T15:08:00;5.68;;;3.92;;
80233;SDS011;69712;42.142;24.766;2024-02-15T15:10:45;9.73;;;5.05;;
80233;SDS011;69712;42.142;24.766;2024-02-15T15:13:30;12.27;;;5.40;;
80233;SDS011;69712;42.142;24.766;2024-02-15T15:15:59;7.18;;;4.55;;